Station History


Daily Summary for February 25, 2012 Units:  English    Metric   Both
« Previous Day
Next Day »
Daily Weekly Monthly Yearly Custom
  High: Low: Average:
Temperature: 67.2 °F 40.4 °F 53 °F
Dew Point: 46.1 °F 33.3 °F 41.4 °F
Humidity: 92% 44% 67%
Wind Speed: 4.6mph 0.0mph 1.9mph
Wind Gust: 4.6mph - -
Wind- - WSW
Pressure: 30.23 in 30.07 in -
Precipitation: 0.00 in    
Historical Graphs
 
 
Tabular Data for February 25, 2012
Time Temperature Dew Point Pressure Wind Wind Speed Wind Gust Humidity Rainfall Rate (Hourly)
00:02 50.2 °F 45.2 °F 30.08 in Calm     83% 0.00 in
00:07 50.0 °F 45.4 °F 30.08 in Calm     84% 0.00 in
00:12 49.9 °F 45.3 °F 30.08 in Calm     84% 0.00 in
00:17 49.6 °F 45.0 °F 30.08 in Calm     84% 0.00 in
00:22 49.4 °F 44.8 °F 30.08 in Calm     84% 0.00 in
00:27 49.2 °F 44.6 °F 30.08 in Calm     84% 0.00 in
00:32 49.6 °F 45.0 °F 30.08 in Calm     84% 0.00 in
00:37 49.7 °F 44.7 °F 30.08 in Calm     83% 0.00 in
00:42 49.7 °F 44.7 °F 30.08 in Calm     83% 0.00 in
00:47 49.5 °F 44.6 °F 30.08 in Calm     83% 0.00 in
00:52 49.4 °F 44.5 °F 30.08 in Calm     83% 0.00 in
00:57 49.4 °F 44.5 °F 30.08 in Calm     83% 0.00 in
01:02 49.4 °F 44.8 °F 30.09 in Calm     84% 0.00 in
01:07 49.4 °F 44.5 °F 30.09 in Calm     83% 0.00 in
01:12 49.4 °F 44.5 °F 30.09 in Calm     83% 0.00 in
01:17 49.2 °F 43.9 °F 30.10 in NNW 1.1 mph   82% 0.00 in
01:22 49.0 °F 44.1 °F 30.10 in Calm     83% 0.00 in
01:27 48.7 °F 43.8 °F 30.10 in NNW 1.1 mph 1.1 mph 83% 0.00 in
01:32 48.5 °F 43.6 °F 30.10 in Calm     83% 0.00 in
01:38 48.3 °F 43.7 °F 30.11 in Calm     84% 0.00 in
01:43 48.2 °F 43.6 °F 30.11 in Calm     84% 0.00 in
01:48 48.2 °F 43.6 °F 30.10 in Calm     84% 0.00 in
01:53 48.2 °F 43.6 °F 30.10 in Calm     84% 0.00 in
01:58 48.1 °F 43.5 °F 30.09 in Calm     84% 0.00 in
02:03 47.9 °F 43.3 °F 30.09 in Calm     84% 0.00 in
02:08 47.5 °F 42.9 °F 30.09 in Calm     84% 0.00 in
02:13 47.3 °F 43.0 °F 30.08 in Calm     85% 0.00 in
02:18 47.0 °F 42.7 °F 30.08 in Calm     85% 0.00 in
02:23 46.8 °F 42.8 °F 30.08 in Calm     86% 0.00 in
02:28 46.9 °F 42.9 °F 30.08 in Calm     86% 0.00 in
02:33 46.7 °F 42.4 °F 30.08 in Calm     85% 0.00 in
02:38 46.5 °F 42.5 °F 30.07 in Calm     86% 0.00 in
02:43 46.3 °F 42.3 °F 30.07 in Calm     86% 0.00 in
02:48 46.1 °F 42.4 °F 30.07 in Calm     87% 0.00 in
02:53 46.0 °F 42.3 °F 30.07 in Calm     87% 0.00 in
02:58 46.0 °F 42.6 °F 30.08 in Calm     88% 0.00 in
03:03 46.0 °F 42.3 °F 30.08 in Calm     87% 0.00 in
03:08 45.9 °F 42.2 °F 30.08 in Calm     87% 0.00 in
03:13 46.0 °F 42.6 °F 30.08 in Calm     88% 0.00 in
03:18 45.9 °F 42.2 °F 30.08 in Calm     87% 0.00 in
03:23 45.7 °F 42.1 °F 30.08 in Calm     87% 0.00 in
03:28 45.4 °F 41.8 °F 30.08 in Calm     87% 0.00 in
03:33 45.1 °F 41.5 °F 30.09 in Calm     87% 0.00 in
03:38 44.9 °F 41.6 °F 30.09 in Calm     88% 0.00 in
03:43 44.7 °F 41.4 °F 30.09 in Calm     88% 0.00 in
03:48 44.4 °F 41.1 °F 30.09 in Calm     88% 0.00 in
03:53 44.4 °F 41.4 °F 30.10 in Calm     89% 0.00 in
03:58 44.2 °F 41.2 °F 30.10 in Calm     89% 0.00 in
04:03 44.3 °F 41.6 °F 30.10 in NNW 1.1 mph   90% 0.00 in
04:08 44.5 °F 41.7 °F 30.10 in Calm     90% 0.00 in
04:13 44.6 °F 41.6 °F 30.11 in Calm     89% 0.00 in
04:18 44.6 °F 41.6 °F 30.11 in Calm     89% 0.00 in
04:24 44.5 °F 41.5 °F 30.11 in Calm     89% 0.00 in
04:29 44.3 °F 41.3 °F 30.11 in Calm     89% 0.00 in
04:34 44.0 °F 41.0 °F 30.12 in Calm     89% 0.00 in
04:39 43.8 °F 40.8 °F 30.12 in Calm     89% 0.00 in
04:44 43.6 °F 40.6 °F 30.11 in Calm     89% 0.00 in
04:49 43.4 °F 40.4 °F 30.12 in Calm     89% 0.00 in
04:54 43.3 °F 40.3 °F 30.12 in Calm     89% 0.00 in
04:59 43.0 °F 40.0 °F 30.12 in Calm     89% 0.00 in
05:04 42.9 °F 39.9 °F 30.12 in Calm     89% 0.00 in
05:09 42.6 °F 39.6 °F 30.12 in Calm     89% 0.00 in
05:14 42.5 °F 39.8 °F 30.12 in Calm     90% 0.00 in
05:19 42.2 °F 39.5 °F 30.13 in Calm     90% 0.00 in
05:24 42.0 °F 39.3 °F 30.13 in Calm     90% 0.00 in
05:29 41.8 °F 38.8 °F 30.13 in Calm     89% 0.00 in
05:34 41.6 °F 38.9 °F 30.13 in Calm     90% 0.00 in
05:39 41.6 °F 38.9 °F 30.13 in Calm     90% 0.00 in
05:44 41.6 °F 38.9 °F 30.14 in Calm     90% 0.00 in
05:49 41.6 °F 38.9 °F 30.14 in Calm     90% 0.00 in
05:54 41.7 °F 39.0 °F 30.14 in Calm     90% 0.00 in
05:59 41.8 °F 39.1 °F 30.14 in Calm     90% 0.00 in
06:04 42.0 °F 39.0 °F 30.14 in Calm     89% 0.00 in
06:09 42.0 °F 38.7 °F 30.15 in Calm     88% 0.00 in
06:14 41.9 °F 38.3 °F 30.15 in Calm     87% 0.00 in
06:19 41.7 °F 38.1 °F 30.15 in Calm     87% 0.00 in
06:24 41.4 °F 37.8 °F 30.15 in Calm     87% 0.00 in
06:29 41.2 °F 37.9 °F 30.15 in Calm     88% 0.00 in
06:34 40.9 °F 37.6 °F 30.15 in Calm     88% 0.00 in
06:39 40.7 °F 37.4 °F 30.16 in Calm     88% 0.00 in
06:44 40.4 °F 37.1 °F 30.16 in Calm     88% 0.00 in
06:49 40.4 °F 37.4 °F 30.16 in Calm     89% 0.00 in
06:54 40.5 °F 37.8 °F 30.16 in Calm     90% 0.00 in
06:59 40.6 °F 37.9 °F 30.17 in Calm     90% 0.00 in
07:04 40.7 °F 38.3 °F 30.17 in Calm     91% 0.00 in
07:09 41.3 °F 39.2 °F 30.17 in Calm     92% 0.00 in
07:14 41.9 °F 39.5 °F 30.18 in Calm     91% 0.00 in
07:19 42.4 °F 39.7 °F 30.18 in Calm     90% 0.00 in
07:24 42.8 °F 40.1 °F 30.18 in Calm     90% 0.00 in
07:29 43.3 °F 40.0 °F 30.19 in Calm     88% 0.00 in
07:34 43.9 °F 40.3 °F 30.19 in Calm     87% 0.00 in
07:39 44.2 °F 40.6 °F 30.20 in Calm     87% 0.00 in
07:44 44.5 °F 40.6 °F 30.20 in Calm     86% 0.00 in
07:49 44.9 °F 41.0 °F 30.20 in Calm     86% 0.00 in
07:54 45.3 °F 41.1 °F 30.21 in Calm     85% 0.00 in
07:59 45.7 °F 41.1 °F 30.21 in Calm     84% 0.00 in
08:04 46.4 °F 41.2 °F 30.21 in Calm     82% 0.00 in
08:09 46.8 °F 41.6 °F 30.21 in Calm     82% 0.00 in
08:14 47.2 °F 41.7 °F 30.22 in Calm     81% 0.00 in
08:19 47.7 °F 42.2 °F 30.22 in SW 1.1 mph   81% 0.00 in
08:24 48.1 °F 41.9 °F 30.22 in Calm     79% 0.00 in
08:29 48.4 °F 42.2 °F 30.22 in WSW 1.0 mph 1.0 mph 79% 0.00 in
08:34 48.7 °F 42.5 °F 30.22 in Calm     79% 0.00 in
08:39 48.9 °F 42.3 °F 30.22 in Calm   0.1 mph 78% 0.00 in
08:44 49.2 °F 42.6 °F 30.22 in NNW 1.1 mph   78% 0.00 in
08:49 49.5 °F 42.9 °F 30.22 in Calm     78% 0.00 in
08:54 49.8 °F 42.9 °F 30.22 in Calm     77% 0.00 in
08:59 50.1 °F 42.8 °F 30.23 in WNW 3.5 mph 3.5 mph 76% 0.00 in
09:04 50.4 °F 43.1 °F 30.23 in SW 1.1 mph 1.1 mph 76% 0.00 in
09:09 50.5 °F 43.2 °F 30.23 in Calm   0.5 mph 76% 0.00 in
09:14 50.7 °F 43.1 °F 30.23 in South 1.0 mph 1.0 mph 75% 0.00 in
09:19 51.0 °F 43.4 °F 30.23 in WNW 1.1 mph   75% 0.00 in
09:25 51.1 °F 43.1 °F 30.23 in Calm   0.1 mph 74% 0.00 in
09:30 51.6 °F 44.3 °F 30.23 in SW 1.1 mph 1.1 mph 76% 0.00 in
09:35 52.3 °F 44.3 °F 30.23 in NW 2.3 mph 2.3 mph 74% 0.00 in
09:40 52.7 °F 44.3 °F 30.23 in NW 3.5 mph 3.5 mph 73% 0.00 in
09:45 52.9 °F 44.1 °F 30.23 in SSW 1.1 mph   72% 0.00 in
09:50 53.4 °F 44.2 °F 30.23 in NNE 3.5 mph 3.5 mph 71% 0.00 in
09:55 53.6 °F 44.0 °F 30.23 in West 2.3 mph 2.3 mph 70% 0.00 in
10:00 53.5 °F 44.3 °F 30.23 in SSW 1.0 mph   71% 0.00 in
10:05 53.7 °F 44.1 °F 30.23 in West 1.1 mph 1.1 mph 70% 0.00 in
10:10 53.7 °F 43.4 °F 30.23 in NNW 2.3 mph 2.3 mph 68% 0.00 in
10:15 53.8 °F 44.2 °F 30.23 in NW 1.1 mph 1.1 mph 70% 0.00 in
10:20 54.1 °F 43.8 °F 30.23 in North 3.5 mph 3.5 mph 68% 0.00 in
10:25 54.3 °F 43.6 °F 30.23 in ENE 1.1 mph   67% 0.00 in
10:30 54.7 °F 43.6 °F 30.23 in ENE 1.1 mph   66% 0.00 in
10:36 55.0 °F 44.6 °F 30.23 in Calm     68% 0.00 in
10:41 55.8 °F 43.8 °F 30.23 in SW 1.1 mph 1.1 mph 64% 0.00 in
10:46 56.5 °F 43.6 °F 30.23 in West 1.1 mph 1.1 mph 62% 0.00 in
10:51 56.9 °F 44.0 °F 30.23 in SSW 1.1 mph   62% 0.00 in
10:56 57.4 °F 44.9 °F 30.23 in Calm     63% 0.00 in
11:01 57.9 °F 44.1 °F 30.23 in WNW 2.3 mph 2.3 mph 60% 0.00 in
11:06 58.1 °F 43.8 °F 30.23 in SE 1.1 mph 1.1 mph 59% 0.00 in
11:11 58.4 °F 44.1 °F 30.23 in NE 1.1 mph 1.1 mph 59% 0.00 in
11:16 58.8 °F 44.0 °F 30.22 in ENE 1.1 mph 1.1 mph 58% 0.00 in
11:21 59.3 °F 43.6 °F 30.22 in NNW 1.1 mph 1.1 mph 56% 0.00 in
11:26 59.1 °F 43.4 °F 30.22 in North 3.5 mph 3.5 mph 56% 0.00 in
11:31 59.3 °F 43.6 °F 30.22 in WSW 2.3 mph 2.3 mph 56% 0.00 in
11:36 60.0 °F 43.8 °F 30.22 in West 3.5 mph 3.5 mph 55% 0.00 in
11:41 60.5 °F 43.3 °F 30.22 in South 2.3 mph 2.3 mph 53% 0.00 in
11:46 60.3 °F 42.6 °F 30.22 in West 2.3 mph 2.3 mph 52% 0.00 in
11:51 59.9 °F 43.7 °F 30.22 in NNE 1.1 mph 1.1 mph 55% 0.00 in
11:56 60.5 °F 42.8 °F 30.21 in ESE 3.5 mph 3.5 mph 52% 0.00 in
12:01 61.1 °F 43.3 °F 30.21 in WSW 1.0 mph 1.0 mph 52% 0.00 in
12:06 61.4 °F 43.6 °F 30.21 in NW 1.1 mph 1.3 mph 52% 0.00 in
12:11 61.6 °F 42.8 °F 30.20 in SSE 3.5 mph 3.5 mph 50% 0.00 in
12:16 61.6 °F 43.8 °F 30.20 in SW 3.5 mph 3.5 mph 52% 0.00 in
12:21 62.0 °F 44.7 °F 30.20 in West 1.1 mph 1.1 mph 53% 0.00 in
12:26 62.5 °F 44.1 °F 30.19 in SE 2.3 mph 2.3 mph 51% 0.00 in
12:31 62.9 °F 44.5 °F 30.19 in NW 1.1 mph 1.1 mph 51% 0.00 in
12:37 63.6 °F 44.6 °F 30.19 in WSW 2.0 mph 2.0 mph 50% 0.00 in
12:42 63.9 °F 44.4 °F 30.19 in SSW 3.5 mph 3.5 mph 49% 0.00 in
12:47 63.9 °F 44.4 °F 30.18 in SW 1.1 mph 1.1 mph 49% 0.00 in
12:52 64.1 °F 44.5 °F 30.18 in SW 2.3 mph 2.3 mph 49% 0.00 in
12:57 64.3 °F 44.7 °F 30.18 in WSW 3.5 mph 3.5 mph 49% 0.00 in
13:02 64.6 °F 44.5 °F 30.18 in SW 2.3 mph 2.3 mph 48% 0.00 in
13:07 64.7 °F 45.6 °F 30.18 in North 2.0 mph 2.0 mph 50% 0.00 in
13:12 64.5 °F 43.8 °F 30.17 in NNE 2.3 mph 2.3 mph 47% 0.00 in
13:17 64.5 °F 44.9 °F 30.17 in West 3.0 mph 3.0 mph 49% 0.00 in
13:22 64.4 °F 45.3 °F 30.17 in WSW 2.3 mph 2.3 mph 50% 0.00 in
13:27 64.2 °F 44.6 °F 30.17 in SE 2.3 mph 2.3 mph 49% 0.00 in
13:32 64.8 °F 44.6 °F 30.17 in WNW 2.3 mph 2.3 mph 48% 0.00 in
13:37 65.5 °F 44.7 °F 30.16 in South 3.5 mph 3.5 mph 47% 0.00 in
13:42 65.6 °F 45.4 °F 30.16 in NNW 3.5 mph 3.5 mph 48% 0.00 in
13:47 65.7 °F 45.5 °F 30.16 in NNE 1.1 mph 1.1 mph 48% 0.00 in
13:52 65.5 °F 45.8 °F 30.16 in NW 1.1 mph 1.1 mph 49% 0.00 in
13:57 65.8 °F 46.1 °F 30.16 in ENE 1.1 mph 1.1 mph 49% 0.00 in
14:02 66.2 °F 45.9 °F 30.15 in West 1.1 mph 1.1 mph 48% 0.00 in
14:07 66.3 °F 44.9 °F 30.15 in NNW 4.0 mph 4.0 mph 46% 0.00 in
14:12 65.5 °F 44.2 °F 30.15 in NW 2.3 mph 2.3 mph 46% 0.00 in
14:17 65.8 °F 45.0 °F 30.14 in SSW 2.3 mph 2.3 mph 47% 0.00 in
14:22 65.9 °F 43.9 °F 30.14 in West 2.3 mph 2.3 mph 45% 0.00 in
14:27 65.8 °F 45.6 °F 30.14 in ENE 1.0 mph 1.0 mph 48% 0.00 in
14:32 66.1 °F 45.3 °F 30.14 in NNE 3.5 mph 3.5 mph 47% 0.00 in
14:37 65.7 °F 44.3 °F 30.14 in NNW 2.3 mph 2.3 mph 46% 0.00 in
14:42 66.0 °F 45.2 °F 30.14 in NNE 2.3 mph 2.3 mph 47% 0.00 in
14:47 66.2 °F 44.8 °F 30.14 in NW 3.0 mph 3.0 mph 46% 0.00 in
14:52 66.2 °F 44.2 °F 30.13 in WSW 1.1 mph 1.1 mph 45% 0.00 in
14:57 66.6 °F 44.6 °F 30.13 in NNW 3.5 mph 3.5 mph 45% 0.00 in
15:03 67.1 °F 44.4 °F 30.13 in SSW 1.1 mph 1.1 mph 44% 0.00 in
15:08 67.2 °F 44.5 °F 30.13 in SW 1.0 mph 1.0 mph 44% 0.00 in
15:13 67.0 °F 45.5 °F 30.13 in SW 1.1 mph 1.1 mph 46% 0.00 in
15:18 67.0 °F 44.4 °F 30.12 in NNE 3.5 mph 3.5 mph 44% 0.00 in
15:23 66.2 °F 44.2 °F 30.12 in West 2.3 mph 2.3 mph 45% 0.00 in
15:28 66.2 °F 44.8 °F 30.12 in ENE 3.5 mph 3.5 mph 46% 0.00 in
15:33 66.2 °F 44.2 °F 30.12 in NNE 1.1 mph 1.1 mph 45% 0.00 in
15:38 66.2 °F 43.6 °F 30.12 in North 3.5 mph 3.5 mph 44% 0.00 in
15:43 66.0 °F 43.5 °F 30.12 in North 4.6 mph 4.6 mph 44% 0.00 in
15:48 65.6 °F 44.3 °F 30.12 in West 3.5 mph 3.5 mph 46% 0.00 in
15:53 65.7 °F 43.8 °F 30.12 in WNW 1.1 mph 1.1 mph 45% 0.00 in
15:58 66.4 °F 44.4 °F 30.11 in North 1.1 mph 1.1 mph 45% 0.00 in
16:03 66.4 °F 43.8 °F 30.11 in North 2.3 mph 2.3 mph 44% 0.00 in
16:08 65.9 °F 43.4 °F 30.11 in NW 1.1 mph 1.1 mph 44% 0.00 in
16:13 65.6 °F 43.7 °F 30.11 in NNW 3.5 mph 3.5 mph 45% 0.00 in
16:18 65.6 °F 43.1 °F 30.11 in West 2.3 mph 2.3 mph 44% 0.00 in
16:23 65.9 °F 43.4 °F 30.10 in WNW 2.3 mph 2.3 mph 44% 0.00 in
16:28 66.5 °F 43.9 °F 30.10 in NW 3.5 mph 3.5 mph 44% 0.00 in
16:33 65.7 °F 43.2 °F 30.10 in SSW 2.3 mph 2.3 mph 44% 0.00 in
16:38 65.6 °F 43.7 °F 30.10 in North 2.0 mph 2.0 mph 45% 0.00 in
16:43 65.1 °F 43.2 °F 30.10 in West 2.3 mph 2.3 mph 45% 0.00 in
16:48 64.7 °F 42.9 °F 30.10 in SSW 1.1 mph   45% 0.00 in
16:53 64.2 °F 43.5 °F 30.10 in SSE 1.1 mph 1.1 mph 47% 0.00 in
16:58 63.7 °F 43.1 °F 30.10 in Calm     47% 0.00 in
17:03 63.3 °F 42.7 °F 30.10 in WSW 2.3 mph 2.3 mph 47% 0.00 in
17:08 62.8 °F 42.8 °F 30.09 in WNW 1.1 mph   48% 0.00 in
17:13 62.4 °F 43.0 °F 30.09 in NNW 1.1 mph 1.1 mph 49% 0.00 in
17:18 62.0 °F 43.1 °F 30.09 in NNW 2.3 mph 2.3 mph 50% 0.00 in
17:23 61.7 °F 42.9 °F 30.09 in NW 1.1 mph 1.1 mph 50% 0.00 in
17:28 61.3 °F 43.0 °F 30.09 in North 1.1 mph 1.1 mph 51% 0.00 in
17:33 61.0 °F 42.7 °F 30.09 in WSW 1.0 mph 1.0 mph 51% 0.00 in
17:38 60.7 °F 42.5 °F 30.09 in West 1.1 mph 1.1 mph 51% 0.00 in
17:43 60.4 °F 42.7 °F 30.09 in West 1.1 mph   52% 0.00 in
17:48 59.9 °F 42.2 °F 30.09 in Calm     52% 0.00 in
17:53 59.5 °F 42.3 °F 30.09 in Calm     53% 0.00 in
17:58 59.1 °F 42.0 °F 30.09 in Calm     53% 0.00 in
18:03 58.6 °F 42.0 °F 30.09 in Calm     54% 0.00 in
18:08 58.3 °F 41.7 °F 30.09 in Calm     54% 0.00 in
18:13 57.9 °F 41.8 °F 30.09 in Calm     55% 0.00 in
18:18 57.6 °F 41.5 °F 30.09 in Calm     55% 0.00 in
18:23 57.2 °F 41.2 °F 30.09 in Calm     55% 0.00 in
18:28 57.0 °F 41.4 °F 30.09 in Calm     56% 0.00 in
18:38 57.0 °F 41.4 °F 30.10 in Calm     56% 0.00 in
18:43 56.9 °F 40.9 °F 30.10 in West 1.1 mph 1.1 mph 55% 0.00 in
18:48 57.0 °F 41.0 °F 30.10 in West 1.1 mph   55% 0.00 in
18:53 56.9 °F 40.9 °F 30.10 in West 1.1 mph   55% 0.00 in
18:58 56.8 °F 41.3 °F 30.10 in Calm   0.1 mph 56% 0.00 in
19:03 56.7 °F 41.2 °F 30.10 in West 1.1 mph   56% 0.00 in
19:08 56.7 °F 41.2 °F 30.10 in Calm     56% 0.00 in
19:13 56.6 °F 41.1 °F 30.10 in Calm     56% 0.00 in
19:18 56.6 °F 41.1 °F 30.10 in Calm     56% 0.00 in
19:23 56.5 °F 41.9 °F 30.10 in Calm     58% 0.00 in
19:29 56.4 °F 42.2 °F 30.10 in Calm     59% 0.00 in
19:34 56.3 °F 42.6 °F 30.10 in Calm     60% 0.00 in
19:39 56.2 °F 42.1 °F 30.10 in Calm     59% 0.00 in
19:44 56.3 °F 41.7 °F 30.10 in Calm     58% 0.00 in
19:49 56.6 °F 42.0 °F 30.10 in SSW 2.3 mph   58% 0.00 in
19:54 56.7 °F 41.2 °F 30.10 in Calm   0.1 mph 56% 0.00 in
19:59 56.6 °F 40.6 °F 30.10 in Calm   0.3 mph 55% 0.00 in
20:04 56.3 °F 39.9 °F 30.11 in WNW 1.1 mph 1.1 mph 54% 0.00 in
20:09 56.0 °F 39.6 °F 30.11 in NNW 1.1 mph   54% 0.00 in
20:14 55.5 °F 39.1 °F 30.11 in NNW 1.1 mph   54% 0.00 in
20:19 55.1 °F 39.2 °F 30.11 in NNW 1.1 mph   55% 0.00 in
20:24 54.7 °F 39.3 °F 30.11 in Calm     56% 0.00 in
20:29 54.3 °F 38.9 °F 30.11 in Calm     56% 0.00 in
20:34 53.9 °F 39.0 °F 30.11 in North 1.0 mph   57% 0.00 in
20:39 53.5 °F 38.6 °F 30.11 in North 1.1 mph 1.1 mph 57% 0.00 in
20:44 53.2 °F 38.4 °F 30.11 in Calm     57% 0.00 in
20:49 52.9 °F 38.1 °F 30.11 in Calm     57% 0.00 in
20:54 52.6 °F 37.8 °F 30.11 in Calm     57% 0.00 in
20:59 52.2 °F 37.4 °F 30.11 in WNW 1.1 mph 1.1 mph 57% 0.00 in
21:00 52.2 °F 37.4 °F 30.11 in WNW 1.1 mph 1.1 mph 57% 0.00 in
21:01 52.1 °F 37.3 °F 30.11 in WNW 1.1 mph   57% 0.00 in
21:06 51.9 °F 37.1 °F 30.11 in Calm     57% 0.00 in
21:11 51.6 °F 36.4 °F 30.11 in WSW 1.1 mph 1.1 mph 56% 0.00 in
21:16 51.3 °F 36.1 °F 30.11 in NNW 1.1 mph   56% 0.00 in
21:21 51.1 °F 35.9 °F 30.11 in North 1.1 mph 1.1 mph 56% 0.00 in
21:26 51.2 °F 35.1 °F 30.11 in NNW 3.5 mph 3.5 mph 54% 0.00 in
21:31 51.4 °F 34.3 °F 30.11 in NW 2.3 mph 2.3 mph 52% 0.00 in
21:36 51.3 °F 34.3 °F 30.11 in Calm     52% 0.00 in
21:41 51.1 °F 34.5 °F 30.11 in Calm     53% 0.00 in
21:46 50.7 °F 34.2 °F 30.11 in Calm     53% 0.00 in
21:51 50.2 °F 34.6 °F 30.11 in Calm     55% 0.00 in
21:56 49.7 °F 34.6 °F 30.11 in Calm     56% 0.00 in
22:01 49.1 °F 34.5 °F 30.11 in Calm     57% 0.00 in
22:06 48.4 °F 34.7 °F 30.11 in Calm     59% 0.00 in
22:11 48.0 °F 35.2 °F 30.11 in Calm     61% 0.00 in
22:16 47.6 °F 34.8 °F 30.11 in Calm     61% 0.00 in
22:21 47.2 °F 34.8 °F 30.11 in Calm     62% 0.00 in
22:26 47.2 °F 34.4 °F 30.11 in Calm     61% 0.00 in
22:31 47.1 °F 34.3 °F 30.11 in Calm     61% 0.00 in
22:36 47.1 °F 33.9 °F 30.11 in Calm   0.1 mph 60% 0.00 in
22:41 47.1 °F 33.9 °F 30.11 in Calm     60% 0.00 in
22:46 47.0 °F 33.4 °F 30.11 in Calm     59% 0.00 in
22:51 47.0 °F 33.4 °F 30.11 in WSW 1.1 mph   59% 0.00 in
22:56 46.8 °F 33.6 °F 30.11 in Calm     60% 0.00 in
23:01 46.4 °F 33.7 °F 30.11 in Calm     61% 0.00 in
23:06 45.9 °F 33.6 °F 30.10 in Calm     62% 0.00 in
23:11 45.3 °F 33.4 °F 30.10 in Calm     63% 0.00 in
23:16 44.8 °F 33.4 °F 30.10 in Calm     64% 0.00 in
23:21 44.3 °F 33.3 °F 30.10 in Calm     65% 0.00 in
23:26 43.9 °F 33.3 °F 30.11 in Calm     66% 0.00 in
23:31 43.6 °F 33.7 °F 30.10 in Calm     68% 0.00 in
23:36 43.4 °F 33.5 °F 30.11 in Calm     68% 0.00 in
23:41 43.4 °F 33.9 °F 30.11 in Calm     69% 0.00 in
23:46 43.4 °F 33.5 °F 30.11 in Calm     68% 0.00 in
23:51 43.5 °F 33.6 °F 30.11 in Calm     68% 0.00 in
23:56 43.3 °F 33.4 °F 30.11 in Calm     68% 0.00 in
Compliments of Weather Underground